Two Rivers, AK (99716)

9:57 PM AKST on February 09, 2016 (GMT -0900)
Lakloey Hill | | Change Station
CLOSE
Current Station
Personal Weather Station
Location: North Pole, AK
Elevation: 630 ft
Nearby Weather Stations

Elev 630 ft 64.83 °N, 147.52 °W | Updated 25 seconds ago

Clear
Clear
0.0 °F
Feels Like 0 °F
N
0.0
Wind Variable Wind from East

Today
High -- | Low -- °F
--% Chance of Precip.
Yesterday
High -- | Low -- °F
Precip. -- in
Pressure 30.19 in
Visibility 10.0 miles
Clouds Clear
Windchill 0 °F
Dew Point -3 °F
Humidity 88%
Rainfall 0.00 in
Snow Depth Not available.
9:10 AM 4:59 PM
Waxing Crescent, 4% visible
METAR PAFB 100558Z 00000KT 10SM CLR M23/M25 A3013 RMK AO2A SLP224 T12301253 11158 21239 4/012 57005 $
Pressure 30.19 in
Visibility 10.0 miles
Clouds Clear
Windchill 0 °F
Dew Point -3 °F
Humidity 88%
Rainfall 0.00 in
Snow Depth Not available.
9:10 AM 4:59 PM
Waxing Crescent, 4% visible
METAR PAFB 100558Z 00000KT 10SM CLR M23/M25 A3013 RMK AO2A SLP224 T12301253 11158 21239 4/012 57005 $

10-Day Weather Forecast

Almanac

Astronomy

Feb. 09, 2016 Rise Set
Actual Time
Civil Twilight
Nautical Twilight
Astronomical Twilight
Moon
Length of Visible Light
Length of Day
Tomorrow will be .
, % of the Moon is Illuminated

Today's Extremes

State Highs State Lows

Community

WunderPhotos

Upload Photos

1,891,826 photos uploaded!

WunderBlog® & News

Nearby

Air Quality

  Air Quality AQ Index Pollutant
Not available.

Snow Depth

Station Depth Elevation

Earthquake Activity

City Distance Mag. Time & Date
Minimum magnitude displayed is 2.5.

Coastal Water Temperatures

Place Temperature

Stations

Nearby Weather Stations

Station Location Temp. Windchill Dew Point Humidity Wind Precip. Elev Updated Type
                   

Watches & Warnings

There are currently no watches in effect.